Time;durP1;ratioP1;P1;durP2;ratioP2;P2;SDS_P1;SDS_P2;PMS_P1;PMS_P2;Temp;Humidity;BMP_temperature;BMP_pressure;BME280_temperature;BME280_humidity;BME280_pressure;Samples;Min_cycle;Max_cycle;Signal;HPM_P1;HPM_P2
2024/03/02 00:00:11;;;;;;;7.03;4.50;;;6.20;99.90;;;;;;5015642;28;19921;-67
2024/03/02 00:02:41;;;;;;;11.02;4.15;;;6.20;99.90;;;;;;4985481;28;20048;-66
2024/03/02 00:05:14;;;;;;;5.30;4.53;;;6.20;99.90;;;;;;5017005;28;20053;-67
2024/03/02 00:07:44;;;;;;;12.27;5.50;;;6.20;99.90;;;;;;4982400;28;20849;-66
2024/03/02 00:10:12;;;;;;;6.30;4.50;;;6.20;99.90;;;;;;5015467;28;20475;-66
2024/03/02 00:12:39;;;;;;;7.95;4.85;;;6.20;99.90;;;;;;5014037;28;20044;-67
2024/03/02 00:15:26;;;;;;;7.15;4.45;;;6.20;99.90;;;;;;5017111;28;20770;-66
2024/03/02 00:17:56;;;;;;;11.93;4.80;;;6.20;99.90;;;;;;4995934;28;20053;-66
2024/03/02 00:20:23;;;;;;;7.40;4.90;;;6.20;99.90;;;;;;4999429;28;20052;-66
2024/03/02 00:22:53;;;;;;;6.38;4.25;;;6.20;99.90;;;;;;5010713;28;20501;-66
2024/03/02 00:25:19;;;;;;;5.60;4.53;;;6.30;99.90;;;;;;5001912;28;20529;-66
2024/03/02 00:27:51;;;;;;;6.53;4.38;;;6.40;99.90;;;;;;4997917;28;20046;-66
2024/03/02 00:30:46;;;;;;;5.60;4.07;;;6.40;99.90;;;;;;5013732;28;20045;-66
2024/03/02 00:33:12;;;;;;;6.85;4.70;;;6.40;99.90;;;;;;4982579;28;20045;-66
2024/03/02 00:35:37;;;;;;;7.53;4.63;;;6.40;99.90;;;;;;5016070;28;20033;-66
2024/03/02 00:38:07;;;;;;;6.78;4.40;;;6.40;99.90;;;;;;5002520;28;20071;-66
2024/03/02 00:40:32;;;;;;;6.38;4.90;;;6.30;99.90;;;;;;5017662;28;20033;-66
2024/03/02 00:42:59;;;;;;;8.80;4.28;;;6.30;99.90;;;;;;4999276;28;20056;-66
2024/03/02 00:45:26;;;;;;;6.50;4.43;;;6.30;99.90;;;;;;5019741;28;20041;-66
2024/03/02 00:47:52;;;;;;;5.97;4.57;;;6.20;99.90;;;;;;4999788;28;20065;-66
2024/03/02 00:50:19;;;;;;;7.32;4.45;;;6.20;99.90;;;;;;5019488;28;20451;-66
2024/03/02 00:52:48;;;;;;;5.22;4.13;;;6.20;99.90;;;;;;5012877;28;20423;-66
2024/03/02 00:55:14;;;;;;;6.03;3.78;;;6.20;99.90;;;;;;5005020;28;20041;-66
2024/03/02 00:57:40;;;;;;;5.03;3.67;;;6.20;99.90;;;;;;5020368;28;20048;-66
2024/03/02 01:00:10;;;;;;;7.13;4.57;;;6.20;99.90;;;;;;5004537;28;20053;-66
2024/03/02 01:02:36;;;;;;;5.53;3.28;;;6.10;99.90;;;;;;5017988;28;20041;-66
2024/03/02 01:05:01;;;;;;;7.22;3.88;;;6.10;99.90;;;;;;5002704;28;20491;-66
2024/03/02 01:07:27;;;;;;;5.95;4.32;;;6.10;99.90;;;;;;5004476;28;20128;-66
2024/03/02 01:09:53;;;;;;;7.90;4.47;;;6.10;99.90;;;;;;5020015;28;20084;-66
2024/03/02 01:12:19;;;;;;;5.07;3.83;;;6.10;99.90;;;;;;5002001;28;20050;-66
2024/03/02 01:14:44;;;;;;;4.75;4.22;;;6.10;99.90;;;;;;4999181;28;20061;-66
2024/03/02 01:17:10;;;;;;;7.05;4.03;;;6.20;99.90;;;;;;5022542;28;20033;-66
2024/03/02 01:19:36;;;;;;;6.82;3.85;;;6.20;99.90;;;;;;5003002;28;20052;-66
2024/03/02 01:22:01;;;;;;;6.15;4.13;;;6.20;99.90;;;;;;5000147;28;20571;-66
2024/03/02 01:24:27;;;;;;;6.30;4.63;;;6.20;99.90;;;;;;5000243;28;20049;-66
2024/03/02 01:26:53;;;;;;;6.35;3.53;;;6.20;99.90;;;;;;4998962;28;20730;-66
2024/03/02 01:29:19;;;;;;;6.18;4.30;;;6.30;99.90;;;;;;5001754;28;20510;-66
2024/03/02 01:31:45;;;;;;;5.93;3.92;;;6.30;99.90;;;;;;5018582;28;20041;-66
2024/03/02 01:34:12;;;;;;;5.95;3.67;;;6.30;99.90;;;;;;5014332;28;20048;-66
2024/03/02 01:36:38;;;;;;;5.63;3.97;;;6.30;99.90;;;;;;5017236;28;20530;-66
2024/03/02 01:39:08;;;;;;;3.72;3.15;;;6.40;99.90;;;;;;5019997;28;20045;-66
2024/03/02 01:41:34;;;;;;;;;;;6.40;99.90;;;;;;5000141;28;20143;-66
2024/03/02 01:44:00;;;;;;;5.70;3.08;;;6.40;99.90;;;;;;4983996;28;19925;-67
2024/03/02 01:46:25;;;;;;;6.45;3.85;;;6.40;99.90;;;;;;4987604;28;20507;-66
2024/03/02 01:48:51;;;;;;;5.03;4.05;;;6.50;99.90;;;;;;4996450;28;20057;-66
2024/03/02 01:51:17;;;;;;;10.07;4.75;;;6.40;99.90;;;;;;5021952;28;20095;-66
2024/03/02 01:53:43;;;;;;;4.45;3.60;;;6.50;99.90;;;;;;5015792;28;20049;-66
2024/03/02 01:56:09;;;;;;;4.10;3.58;;;6.40;99.90;;;;;;5018979;28;20047;-66
2024/03/02 01:58:34;;;;;;;4.10;3.67;;;6.40;99.90;;;;;;5000178;28;20049;-66
2024/03/02 02:01:00;;;;;;;4.07;3.40;;;6.40;99.90;;;;;;4979183;28;20034;-66
2024/03/02 02:03:26;;;;;;;6.38;3.90;;;6.40;99.90;;;;;;5019590;28;20118;-66
2024/03/02 02:05:52;;;;;;;4.90;3.92;;;6.40;99.90;;;;;;4998984;28;20435;-66
2024/03/02 02:08:17;;;;;;;5.10;3.35;;;6.40;99.90;;;;;;5021315;28;20523;-66
2024/03/02 02:10:43;;;;;;;5.75;3.38;;;6.50;99.90;;;;;;5018186;28;20046;-66
2024/03/02 02:13:09;;;;;;;3.35;2.92;;;6.40;99.90;;;;;;5018242;28;20480;-66
2024/03/02 02:15:36;;;;;;;4.75;3.67;;;6.40;99.90;;;;;;5001980;28;20119;-66
2024/03/02 02:18:03;;;;;;;5.80;3.83;;;6.50;99.90;;;;;;4998570;28;20049;-66
2024/03/02 02:20:29;;;;;;;4.22;3.60;;;6.50;99.90;;;;;;5003521;28;20395;-66
2024/03/02 02:23:02;;;;;;;6.32;3.25;;;6.50;99.90;;;;;;5001136;28;20050;-66
2024/03/02 02:25:29;;;;;;;3.97;3.13;;;6.50;99.90;;;;;;5017471;28;20424;-66
2024/03/02 02:28:01;;;;;;;3.72;2.95;;;6.50;99.90;;;;;;5015160;28;20111;-66
2024/03/02 02:30:32;;;;;;;4.75;3.35;;;6.60;99.90;;;;;;4985463;28;20511;-66
2024/03/02 02:32:58;;;;;;;4.75;2.50;;;6.60;99.90;;;;;;4997828;28;20582;-66
2024/03/02 02:35:24;;;;;;;11.30;3.00;;;6.70;99.90;;;;;;5020023;28;20092;-66
2024/03/02 02:37:51;;;;;;;2.40;2.20;;;6.70;99.90;;;;;;4999579;28;20527;-66
2024/03/02 02:40:18;;;;;;;5.93;3.33;;;6.80;99.90;;;;;;5001312;28;20854;-66
2024/03/02 02:42:44;;;;;;;3.00;2.38;;;6.80;99.90;;;;;;5015763;28;20103;-66
2024/03/02 02:45:13;;;;;;;3.25;2.70;;;6.90;99.90;;;;;;4995864;28;20049;-66
2024/03/02 02:47:38;;;;;;;3.78;2.30;;;6.90;99.90;;;;;;4998797;28;20093;-66
2024/03/02 02:50:06;;;;;;;2.90;2.05;;;6.90;99.90;;;;;;4981381;28;20564;-66
2024/03/02 02:52:33;;;;;;;2.35;2.15;;;6.90;99.90;;;;;;4997995;28;20105;-66
2024/03/02 02:54:59;;;;;;;3.85;2.50;;;6.90;99.90;;;;;;4999765;28;20046;-66
2024/03/02 02:57:25;;;;;;;4.13;2.35;;;6.90;99.90;;;;;;4997777;28;20042;-66
2024/03/02 02:59:51;;;;;;;2.38;2.17;;;6.90;99.90;;;;;;4998345;28;20040;-66
2024/03/02 03:02:16;;;;;;;3.63;3.28;;;6.90;99.90;;;;;;4995350;28;20056;-66
2024/03/02 03:04:42;;;;;;;3.25;2.50;;;7.00;99.90;;;;;;4998046;28;20476;-66
2024/03/02 03:07:08;;;;;;;4.22;2.70;;;7.00;99.90;;;;;;4996891;28;20088;-66
2024/03/02 03:09:36;;;;;;;3.50;2.90;;;7.00;99.90;;;;;;4983215;28;20552;-66
2024/03/02 03:12:02;;;;;;;2.90;1.75;;;7.00;99.90;;;;;;4998267;28;20129;-66
2024/03/02 03:14:28;;;;;;;3.88;2.72;;;7.00;99.90;;;;;;4999038;28;20396;-66
2024/03/02 03:16:54;;;;;;;4.50;3.05;;;7.00;99.90;;;;;;4998799;28;20483;-66
2024/03/02 03:19:19;;;;;;;2.80;2.60;;;6.90;99.90;;;;;;4998623;28;20550;-66
2024/03/02 03:21:45;;;;;;;2.95;2.17;;;6.90;99.90;;;;;;4997666;28;20046;-66
2024/03/02 03:24:11;;;;;;;2.78;2.53;;;6.90;99.90;;;;;;4996402;28;20038;-66
2024/03/02 03:26:37;;;;;;;4.95;3.10;;;6.90;99.90;;;;;;5000114;28;20425;-66
2024/03/02 03:29:02;;;;;;;4.45;2.00;;;6.90;99.90;;;;;;4999129;28;20311;-66
2024/03/02 03:31:29;;;;;;;5.88;2.42;;;6.90;99.90;;;;;;4997393;28;20049;-66
2024/03/02 03:33:55;;;;;;;2.83;2.13;;;6.90;99.90;;;;;;4978599;28;20054;-66
2024/03/02 03:36:20;;;;;;;2.42;2.15;;;6.90;99.90;;;;;;4990870;28;20108;-66
2024/03/02 03:38:46;;;;;;;3.08;2.53;;;6.80;99.90;;;;;;4996545;28;20042;-66
2024/03/02 03:41:12;;;;;;;2.78;2.55;;;6.80;99.90;;;;;;4997611;28;20156;-66
2024/03/02 03:43:37;;;;;;;5.32;2.65;;;6.80;99.90;;;;;;4998285;28;20053;-66
2024/03/02 03:46:03;;;;;;;2.70;2.50;;;6.80;99.90;;;;;;4990294;28;20046;-66
2024/03/02 03:48:30;;;;;;;2.78;2.58;;;6.70;99.90;;;;;;5001365;28;20068;-66
2024/03/02 03:50:56;;;;;;;2.33;2.22;;;6.70;99.90;;;;;;5018492;28;20052;-66
2024/03/02 03:53:22;;;;;;;3.80;2.60;;;6.60;99.90;;;;;;4998014;28;20046;-66
2024/03/02 03:55:49;;;;;;;2.80;2.30;;;6.60;99.90;;;;;;4998003;28;20048;-66
2024/03/02 03:58:16;;;;;;;6.80;2.83;;;6.50;99.90;;;;;;5013310;28;20062;-66
2024/03/02 04:00:42;;;;;;;2.78;2.47;;;6.50;99.90;;;;;;5019749;28;20087;-66
2024/03/02 04:03:08;;;;;;;2.63;2.42;;;6.40;99.90;;;;;;4995679;28;20056;-66
2024/03/02 04:05:34;;;;;;;3.35;2.22;;;6.40;99.90;;;;;;5013983;28;20037;-66
2024/03/02 04:08:01;;;;;;;2.63;2.33;;;6.30;99.90;;;;;;5016053;28;20053;-66
2024/03/02 04:10:26;;;;;;;2.53;2.33;;;6.20;99.90;;;;;;5020239;28;20478;-66
2024/03/02 04:12:52;;;;;;;2.60;2.40;;;6.20;99.90;;;;;;5002635;28;20045;-66
2024/03/02 04:15:18;;;;;;;2.60;2.40;;;6.20;99.90;;;;;;4998677;28;20045;-66
2024/03/02 04:17:44;;;;;;;2.85;2.20;;;6.10;99.90;;;;;;5019945;28;20454;-66
2024/03/02 04:20:12;;;;;;;2.55;2.13;;;6.10;99.90;;;;;;5020756;28;20503;-66
2024/03/02 04:22:38;;;;;;;2.55;2.30;;;6.00;99.90;;;;;;5002470;28;20046;-66
2024/03/02 04:25:07;;;;;;;2.78;2.08;;;5.90;99.90;;;;;;5000751;28;20398;-66
2024/03/02 04:27:36;;;;;;;2.53;2.33;;;5.90;99.90;;;;;;5000264;28;20037;-66
2024/03/02 04:30:02;;;;;;;2.05;1.88;;;5.80;99.90;;;;;;5003638;28;20060;-66
2024/03/02 04:32:27;;;;;;;3.83;2.30;;;5.80;99.90;;;;;;4998109;28;20041;-66
2024/03/02 04:34:54;;;;;;;2.47;2.00;;;5.80;99.90;;;;;;5002821;28;20416;-66
2024/03/02 04:37:21;;;;;;;3.35;2.72;;;5.80;99.90;;;;;;5020419;28;20580;-67
2024/03/02 04:39:47;;;;;;;3.35;2.05;;;5.80;99.90;;;;;;5004059;28;20545;-66
2024/03/02 04:42:12;;;;;;;4.68;1.60;;;5.80;99.90;;;;;;5001369;28;20049;-66
2024/03/02 04:44:38;;;;;;;1.80;1.70;;;5.80;99.90;;;;;;4989640;28;20111;-66
2024/03/02 04:47:05;;;;;;;2.40;2.20;;;5.80;99.90;;;;;;5023817;28;20101;-66
2024/03/02 04:49:31;;;;;;;2.00;1.83;;;5.80;99.90;;;;;;5023682;28;20049;-66
2024/03/02 04:51:57;;;;;;;3.58;2.00;;;5.70;99.90;;;;;;5014933;28;20518;-66
2024/03/02 04:54:22;;;;;;;2.40;2.20;;;5.70;99.90;;;;;;5004434;28;20057;-66
2024/03/02 04:56:51;;;;;;;1.83;1.73;;;5.60;99.90;;;;;;4990842;28;20414;-66
2024/03/02 04:59:18;;;;;;;2.78;2.10;;;5.50;99.90;;;;;;5004422;28;20509;-67
2024/03/02 05:01:44;;;;;;;2.35;1.85;;;5.50;99.90;;;;;;5005400;28;20067;-66
2024/03/02 05:04:11;;;;;;;2.65;2.00;;;5.50;99.90;;;;;;5005359;28;20602;-66
2024/03/02 05:06:40;;;;;;;2.55;2.00;;;5.40;99.90;;;;;;5024015;28;20041;-66
2024/03/02 05:09:09;;;;;;;2.90;1.90;;;5.40;99.90;;;;;;5024412;28;21603;-66
2024/03/02 05:14:06;;;;;;;2.63;2.30;;;5.30;99.90;;;;;;5023538;28;20061;-66
2024/03/02 05:16:41;;;;;;;2.78;2.33;;;5.30;99.90;;;;;;5016850;28;20034;-66
2024/03/02 05:19:07;;;;;;;4.10;2.60;;;5.20;99.90;;;;;;5006176;28;20057;-66
2024/03/02 05:21:34;;;;;;;4.22;2.40;;;5.20;99.90;;;;;;4988803;28;20049;-66
2024/03/02 05:23:59;;;;;;;6.10;2.15;;;5.20;99.90;;;;;;5018717;28;20171;-66
2024/03/02 05:26:25;;;;;;;2.60;2.40;;;5.10;99.90;;;;;;5024542;28;20140;-66
2024/03/02 05:28:51;;;;;;;2.60;2.10;;;5.10;99.90;;;;;;4999824;28;20054;-67
2024/03/02 05:31:17;;;;;;;6.18;2.47;;;5.10;99.90;;;;;;5003951;28;20453;-66
2024/03/02 05:33:43;;;;;;;2.60;2.40;;;5.10;99.90;;;;;;5003286;28;20093;-66
2024/03/02 05:36:09;;;;;;;2.17;1.90;;;5.10;99.90;;;;;;5006518;28;20088;-66
2024/03/02 05:38:35;;;;;;;2.47;2.28;;;5.20;99.90;;;;;;5022256;28;20560;-66
2024/03/02 05:41:01;;;;;;;2.15;1.92;;;5.20;99.90;;;;;;5024092;28;20037;-66
2024/03/02 05:43:27;;;;;;;3.15;2.60;;;5.20;99.90;;;;;;5004617;28;20049;-67
2024/03/02 05:45:53;;;;;;;3.45;2.25;;;5.20;99.90;;;;;;5015084;28;20148;-66
2024/03/02 05:48:18;;;;;;;2.05;1.92;;;5.20;99.90;;;;;;5006130;28;20504;-66
2024/03/02 05:50:44;;;;;;;1.95;1.80;;;5.30;99.90;;;;;;5021597;28;20515;-66
2024/03/02 05:53:10;;;;;;;3.13;2.08;;;5.50;99.90;;;;;;5006619;28;20054;-66
2024/03/02 05:55:36;;;;;;;4.93;2.50;;;5.50;99.90;;;;;;5016151;28;20093;-66
2024/03/02 06:00:46;;;;;;;3.20;2.53;;;5.50;99.90;;;;;;5022811;28;20415;-66
2024/03/02 06:03:12;;;;;;;3.65;2.45;;;5.40;99.90;;;;;;5004435;28;20046;-66
2024/03/02 06:05:37;;;;;;;2.25;2.05;;;5.30;99.90;;;;;;5001179;28;20438;-66
2024/03/02 06:08:03;;;;;;;2.20;2.00;;;5.30;99.90;;;;;;5021396;28;20049;-66
2024/03/02 06:10:29;;;;;;;3.53;2.22;;;5.30;99.90;;;;;;5005128;28;20107;-66
2024/03/02 06:12:55;;;;;;;3.03;2.35;;;5.30;99.90;;;;;;5021634;28;20117;-66
2024/03/02 06:15:21;;;;;;;5.25;2.40;;;5.30;99.90;;;;;;5001198;28;20063;-66
2024/03/02 06:17:46;;;;;;;3.38;2.63;;;5.20;99.90;;;;;;5016869;28;20075;-66
2024/03/02 06:20:12;;;;;;;3.83;2.65;;;5.30;99.90;;;;;;5004457;28;20041;-66
2024/03/02 06:22:38;;;;;;;2.75;2.55;;;5.30;99.90;;;;;;4997991;28;20520;-66
2024/03/02 06:25:04;;;;;;;4.35;2.72;;;5.30;99.90;;;;;;5002052;28;20088;-66
2024/03/02 06:27:29;;;;;;;2.58;2.38;;;5.30;99.90;;;;;;4987619;28;20048;-66
2024/03/02 06:29:55;;;;;;;5.88;2.65;;;5.30;99.90;;;;;;5002998;28;20079;-66
2024/03/02 06:32:21;;;;;;;5.72;2.83;;;5.30;99.90;;;;;;5023020;28;20072;-66
2024/03/02 06:34:47;;;;;;;3.38;2.80;;;5.40;99.90;;;;;;5021769;28;20171;-66
2024/03/02 06:37:12;;;;;;;4.40;3.08;;;5.50;99.90;;;;;;5003889;28;20087;-66
2024/03/02 06:39:38;;;;;;;2.92;2.70;;;5.50;99.90;;;;;;5021806;28;20052;-66
2024/03/02 06:42:04;;;;;;;3.63;2.58;;;5.60;99.90;;;;;;5021341;28;20048;-66
2024/03/02 06:44:30;;;;;;;7.28;3.33;;;5.50;99.90;;;;;;5019837;28;20096;-66
2024/03/02 06:46:55;;;;;;;9.38;2.88;;;5.50;99.90;;;;;;5002962;28;20045;-66
2024/03/02 06:49:21;;;;;;;2.85;2.10;;;5.60;99.90;;;;;;4987227;28;20503;-66
2024/03/02 06:51:47;;;;;;;5.88;2.65;;;5.60;99.90;;;;;;4998557;28;20068;-66
2024/03/02 06:54:12;;;;;;;2.97;2.67;;;5.70;99.90;;;;;;5003348;28;20465;-66
2024/03/02 06:56:39;;;;;;;5.20;2.63;;;5.70;99.90;;;;;;4972732;28;20061;-66
2024/03/02 06:59:04;;;;;;;8.70;3.22;;;5.70;99.90;;;;;;4997755;28;20098;-66
2024/03/02 07:01:30;;;;;;;3.33;2.45;;;5.70;99.90;;;;;;4991922;28;20435;-66
2024/03/02 07:03:56;;;;;;;4.22;2.47;;;5.70;99.90;;;;;;5020012;28;20073;-66
2024/03/02 07:06:21;;;;;;;3.67;3.03;;;5.70;99.90;;;;;;5017271;28;20045;-66
2024/03/02 07:08:47;;;;;;;2.67;2.47;;;5.60;99.90;;;;;;4992022;28;20076;-66
2024/03/02 07:11:13;;;;;;;4.63;2.92;;;5.70;99.90;;;;;;5022001;28;20041;-66
2024/03/02 07:13:39;;;;;;;3.15;2.35;;;5.60;99.90;;;;;;5003468;28;20045;-67
2024/03/02 07:18:45;;;;;;;4.82;2.90;;;5.60;99.90;;;;;;4998163;28;20134;-66
2024/03/02 07:21:10;;;;;;;4.85;3.03;;;5.60;99.90;;;;;;5019569;28;20053;-66
2024/03/02 07:23:36;;;;;;;5.30;3.92;;;5.50;99.90;;;;;;5022071;28;20602;-66
2024/03/02 07:26:03;;;;;;;3.67;2.47;;;5.50;99.90;;;;;;5019775;28;20088;-66
2024/03/02 07:28:29;;;;;;;3.53;2.50;;;5.50;99.90;;;;;;5020312;28;20044;-66
2024/03/02 07:31:01;;;;;;;3.42;2.30;;;5.50;99.90;;;;;;5017087;28;20092;-66
2024/03/02 07:33:27;;;;;;;2.75;2.53;;;5.60;99.90;;;;;;5003369;28;20559;-66
2024/03/02 07:35:55;;;;;;;2.90;2.53;;;5.60;99.90;;;;;;5003953;28;20045;-66
2024/03/02 07:38:21;;;;;;;4.15;2.47;;;5.60;99.90;;;;;;5019443;28;20056;-66
2024/03/02 07:40:51;;;;;;;3.75;2.58;;;5.70;99.90;;;;;;5001885;28;20535;-66
2024/03/02 07:43:17;;;;;;;3.07;2.53;;;5.70;99.90;;;;;;5001935;28;20049;-66
2024/03/02 07:45:43;;;;;;;3.22;2.78;;;5.80;99.90;;;;;;5002715;28;20480;-66
2024/03/02 07:48:09;;;;;;;5.30;2.80;;;5.90;99.90;;;;;;5020643;28;20102;-66
2024/03/02 07:50:35;;;;;;;3.67;3.15;;;5.90;99.90;;;;;;5018252;28;20404;-66
2024/03/02 07:53:01;;;;;;;5.35;3.10;;;6.00;99.90;;;;;;5021832;28;20300;-66
2024/03/02 07:55:28;;;;;;;2.97;2.67;;;6.00;99.90;;;;;;5002397;28;20057;-67
2024/03/02 07:57:55;;;;;;;4.20;2.90;;;6.10;99.90;;;;;;5003879;28;20053;-66
2024/03/02 08:00:21;;;;;;;4.35;3.17;;;6.20;99.90;;;;;;5001014;28;20133;-66
2024/03/02 08:02:46;;;;;;;3.97;2.65;;;6.20;99.90;;;;;;4998729;28;20116;-66
2024/03/02 08:05:12;;;;;;;2.72;2.30;;;6.30;99.90;;;;;;5018802;28;20467;-66
2024/03/02 08:07:38;;;;;;;3.83;3.05;;;6.40;99.90;;;;;;5021308;28;20080;-66
2024/03/02 08:10:05;;;;;;;3.08;2.67;;;6.60;99.90;;;;;;4980484;28;20045;-66
2024/03/02 08:12:31;;;;;;;2.95;2.67;;;6.80;99.90;;;;;;4994635;28;20072;-66
2024/03/02 08:14:56;;;;;;;2.67;2.40;;;6.90;99.90;;;;;;5021589;28;20081;-66
2024/03/02 08:17:22;;;;;;;4.80;2.70;;;7.10;99.90;;;;;;5019485;28;20153;-66
2024/03/02 08:19:48;;;;;;;3.75;2.55;;;7.20;99.90;;;;;;5003732;28;20071;-66
2024/03/02 08:22:15;;;;;;;4.03;2.60;;;7.40;99.90;;;;;;5008484;28;20510;-66
2024/03/02 08:24:41;;;;;;;3.92;2.65;;;7.50;99.90;;;;;;5002356;28;20127;-66
2024/03/02 08:27:06;;;;;;;2.92;2.28;;;7.60;99.90;;;;;;5002425;28;20068;-67
2024/03/02 08:29:33;;;;;;;8.95;3.15;;;7.60;99.90;;;;;;5003089;28;20420;-66
2024/03/02 08:31:59;;;;;;;4.32;2.92;;;7.70;99.90;;;;;;5021447;28;20049;-66
2024/03/02 08:34:25;;;;;;;3.22;2.92;;;7.90;99.90;;;;;;5000935;28;20132;-66
2024/03/02 08:36:51;;;;;;;3.38;2.88;;;7.90;99.90;;;;;;4993449;28;20407;-66
2024/03/02 08:39:17;;;;;;;3.83;2.65;;;7.80;99.90;;;;;;5000502;28;20079;-66
2024/03/02 08:41:45;;;;;;;4.45;2.78;;;7.70;99.90;;;;;;5016537;28;20213;-66
2024/03/02 08:44:11;;;;;;;3.25;2.95;;;7.70;99.90;;;;;;5016006;28;20156;-66
2024/03/02 08:46:37;;;;;;;3.42;2.70;;;7.70;99.90;;;;;;4985226;28;20093;-66
2024/03/02 08:49:04;;;;;;;6.22;2.90;;;7.80;99.90;;;;;;5020730;28;20162;-66
2024/03/02 08:51:29;;;;;;;4.00;3.45;;;7.80;99.90;;;;;;4981267;28;20373;-66
2024/03/02 08:53:56;;;;;;;2.67;2.45;;;7.80;99.90;;;;;;5019044;28;20451;-65
2024/03/02 08:56:23;;;;;;;4.18;2.35;;;7.80;99.90;;;;;;5002722;28;20391;-66
2024/03/02 08:58:49;;;;;;;2.45;2.25;;;7.90;99.90;;;;;;5003199;28;20053;-66
2024/03/02 09:01:16;;;;;;;6.82;2.70;;;7.90;99.90;;;;;;4999126;28;20051;-66
2024/03/02 09:03:45;;;;;;;6.85;2.63;;;7.90;99.90;;;;;;5006750;28;20483;-66
2024/03/02 09:06:12;;;;;;;4.53;2.85;;;8.00;99.90;;;;;;5014130;28;20403;-66
2024/03/02 09:08:38;;;;;;;5.63;2.95;;;8.10;99.90;;;;;;5021170;28;20053;-66
2024/03/02 09:11:06;;;;;;;2.65;2.45;;;8.10;99.90;;;;;;4990169;28;20045;-66
2024/03/02 09:13:33;;;;;;;7.28;3.25;;;8.20;99.90;;;;;;5013511;28;20046;-66
2024/03/02 09:15:59;;;;;;;2.80;2.60;;;8.30;99.90;;;;;;5023255;28;20107;-66
2024/03/02 09:18:24;;;;;;;3.67;2.72;;;8.50;99.90;;;;;;5021155;28;20167;-66
2024/03/02 09:20:50;;;;;;;2.72;2.30;;;8.60;99.90;;;;;;5023873;28;20064;-66
2024/03/02 09:23:16;;;;;;;3.10;2.83;;;8.60;99.90;;;;;;4987733;28;20567;-66
2024/03/02 09:25:42;;;;;;;3.88;2.28;;;8.60;99.90;;;;;;5023197;28;20041;-66
2024/03/02 09:28:07;;;;;;;3.17;2.70;;;8.60;99.90;;;;;;5022588;28;20399;-66
2024/03/02 09:30:33;;;;;;;3.47;2.70;;;8.70;99.90;;;;;;5022441;28;20492;-66
2024/03/02 09:32:59;;;;;;;5.15;2.80;;;8.70;99.90;;;;;;5004874;28;20410;-66
2024/03/02 09:35:25;;;;;;;3.42;2.35;;;8.70;99.90;;;;;;4985930;28;20419;-68
2024/03/02 09:37:51;;;;;;;4.28;2.65;;;8.80;99.90;;;;;;5002121;28;20057;-67
2024/03/02 09:40:17;;;;;;;3.08;2.63;;;8.80;99.90;;;;;;5022027;28;20384;-67
2024/03/02 09:42:45;;;;;;;2.10;1.88;;;8.90;99.90;;;;;;5022900;28;20050;-66
2024/03/02 09:45:12;;;;;;;4.82;2.70;;;9.10;99.90;;;;;;5022447;28;20038;-66
2024/03/02 09:47:38;;;;;;;3.97;1.58;;;9.30;99.90;;;;;;5002470;28;20057;-67
2024/03/02 09:50:04;;;;;;;1.60;1.50;;;9.40;99.90;;;;;;5004362;28;20057;-66
2024/03/02 09:52:31;;;;;;;1.70;1.60;;;9.60;99.90;;;;;;5003948;28;20037;-66
2024/03/02 09:54:57;;;;;;;3.92;1.83;;;9.60;94.40;;;;;;5006170;28;20049;-66
2024/03/02 09:57:23;;;;;;;2.40;2.13;;;9.60;94.50;;;;;;5003846;28;20422;-66
2024/03/02 09:59:48;;;;;;;2.22;2.00;;;9.60;96.70;;;;;;4997350;28;20500;-66
2024/03/02 10:02:14;;;;;;;2.42;1.80;;;9.60;99.30;;;;;;5020807;28;21197;-66
2024/03/02 10:04:40;;;;;;;2.42;2.13;;;9.70;96.10;;;;;;4986460;28;20037;-66
2024/03/02 10:07:17;;;;;;;7.95;1.77;;;9.70;84.30;;;;;;5022964;28;20056;-66
2024/03/02 10:09:44;;;;;;;7.18;2.08;;;9.90;86.10;;;;;;4980641;28;20089;-66
2024/03/02 10:12:12;;;;;;;2.00;1.90;;;10.00;81.20;;;;;;5013778;28;20552;-66
2024/03/02 10:14:39;;;;;;;2.13;1.98;;;10.00;78.70;;;;;;5020269;28;20462;-66
2024/03/02 10:17:08;;;;;;;3.20;1.80;;;10.10;57.10;;;;;;5005179;28;20080;-66
2024/03/02 10:19:36;;;;;;;2.13;1.70;;;10.20;52.90;;;;;;5020747;28;20046;-66
2024/03/02 10:22:07;;;;;;;8.23;1.90;;;10.20;56.50;;;;;;5019516;28;20075;-66
2024/03/02 10:24:40;;;;;;;2.10;1.85;;;10.30;41.90;;;;;;5004779;28;20107;-66
2024/03/02 10:27:09;;;;;;;3.50;2.03;;;10.30;67.80;;;;;;5012510;28;20085;-66
2024/03/02 10:29:41;;;;;;;0.73;0.70;;;10.40;59.00;;;;;;5004620;28;20523;-66
2024/03/02 10:32:13;;;;;;;3.80;1.02;;;10.50;41.50;;;;;;5009646;28;20147;-66
2024/03/02 10:34:47;;;;;;;2.78;1.60;;;10.50;31.90;;;;;;5023076;28;20399;-66
2024/03/02 10:37:13;;;;;;;4.13;1.50;;;10.60;55.80;;;;;;4998580;28;20156;-66
2024/03/02 10:39:40;;;;;;;3.92;1.90;;;10.70;29.60;;;;;;5002277;28;20046;-66
2024/03/02 10:42:06;;;;;;;3.05;1.27;;;10.80;40.60;;;;;;5003367;28;20050;-66
2024/03/02 10:44:33;;;;;;;0.82;0.82;;;10.80;21.90;;;;;;4985481;28;20087;-66
2024/03/02 10:47:03;;;;;;;1.73;1.00;;;10.90;23.30;;;;;;5022256;28;20061;-66
2024/03/02 10:49:31;;;;;;;2.00;0.90;;;11.10;39.60;;;;;;5019657;28;20637;-66
2024/03/02 10:52:00;;;;;;;6.30;1.08;;;11.00;1.40;;;;;;4983394;28;20420;-66
2024/03/02 10:54:28;;;;;;;1.42;0.88;;;11.10;20.30;;;;;;5021009;28;20041;-66
2024/03/02 10:56:58;;;;;;;0.63;0.63;;;11.00;1.00;;;;;;4983609;28;20111;-66
2024/03/02 10:59:31;;;;;;;1.17;0.70;;;11.10;3.60;;;;;;4997155;28;20522;-66
2024/03/02 11:01:59;;;;;;;1.00;0.90;;;11.20;5.40;;;;;;5019107;28;20081;-66
2024/03/02 11:04:30;;;;;;;2.90;0.80;;;11.20;1.00;;;;;;5003756;28;20037;-66
2024/03/02 11:07:02;;;;;;;5.85;0.80;;;11.30;1.00;;;;;;5020574;28;20053;-65
2024/03/02 11:09:32;;;;;;;4.40;0.93;;;11.40;1.00;;;;;;5001894;28;20045;-66
2024/03/02 11:12:09;;;;;;;1.77;0.93;;;11.40;1.00;;;;;;5003954;28;20044;-66
2024/03/02 11:14:40;;;;;;;0.98;0.98;;;11.50;4.40;;;;;;5001911;28;20045;-66
2024/03/02 11:17:07;;;;;;;5.28;0.85;;;11.60;1.00;;;;;;5021665;28;20516;-66
2024/03/02 11:19:34;;;;;;;2.17;1.27;;;11.40;1.00;;;;;;4998540;28;20361;-66
2024/03/02 11:22:01;;;;;;;4.95;1.52;;;11.30;1.00;;;;;;5000268;28;20435;-66
2024/03/02 11:24:32;;;;;;;4.05;1.30;;;11.30;1.00;;;;;;5018117;28;20088;-66
2024/03/02 11:26:58;;;;;;;3.75;1.60;;;11.40;1.00;;;;;;4985664;28;20257;-65
2024/03/02 11:29:54;;;;;;;2.58;1.80;;;11.40;1.00;;;;;;5021905;28;20135;-66
2024/03/02 11:32:24;;;;;;;4.07;2.03;;;11.50;1.00;;;;;;5001946;28;20577;-66
2024/03/02 11:34:50;;;;;;;3.17;2.20;;;11.50;1.00;;;;;;5016273;28;20045;-66
2024/03/02 11:37:23;;;;;;;1.98;1.88;;;11.50;1.00;;;;;;4985613;28;20590;-66
2024/03/02 11:39:51;;;;;;;1.88;1.70;;;11.60;1.00;;;;;;5019803;28;20041;-66
2024/03/02 11:42:18;;;;;;;2.20;1.92;;;11.60;1.00;;;;;;5003335;28;20483;-66
2024/03/02 11:44:48;;;;;;;5.03;2.58;;;11.60;1.00;;;;;;5016729;28;20636;-66
2024/03/02 11:47:20;;;;;;;5.25;2.20;;;11.70;1.00;;;;;;4991321;28;20527;-65
2024/03/02 11:49:50;;;;;;;3.63;2.00;;;11.70;1.00;;;;;;5017138;28;20395;-65
2024/03/02 11:52:17;;;;;;;3.70;2.20;;;11.80;1.00;;;;;;5003840;28;20061;-66
2024/03/02 11:54:51;;;;;;;2.47;2.28;;;11.80;1.00;;;;;;5018900;28;20499;-65
2024/03/02 11:57:19;;;;;;;3.55;2.28;;;11.80;1.00;;;;;;5001200;28;20076;-66
2024/03/02 12:00:05;;;;;;;3.55;2.60;;;11.80;1.00;;;;;;5020881;28;20092;-66
2024/03/02 12:02:31;;;;;;;4.70;2.55;;;11.80;1.00;;;;;;5001023;28;20053;-66
2024/03/02 12:04:57;;;;;;;2.08;1.92;;;11.90;1.00;;;;;;5020685;28;20061;-66
2024/03/02 12:07:23;;;;;;;4.22;2.70;;;12.00;1.00;;;;;;5000682;28;20124;-66
2024/03/02 12:10:10;;;;;;;3.00;2.70;;;12.00;1.00;;;;;;4980418;28;20092;-65
2024/03/02 12:12:35;;;;;;;3.35;2.33;;;12.00;1.00;;;;;;5013482;28;20045;-66
2024/03/02 12:15:03;;;;;;;2.60;2.30;;;12.10;1.00;;;;;;5015464;28;21013;-66
2024/03/02 12:17:29;;;;;;;1.77;1.67;;;12.10;1.00;;;;;;5015794;28;20586;-66
2024/03/02 12:19:55;;;;;;;3.03;2.60;;;12.20;1.00;;;;;;5018436;28;20049;-66
2024/03/02 12:22:21;;;;;;;3.35;1.85;;;12.10;1.00;;;;;;5021697;28;20064;-66
2024/03/02 12:24:47;;;;;;;1.60;1.50;;;12.10;1.00;;;;;;5020169;28;20069;-66
2024/03/02 12:27:15;;;;;;;3.33;2.45;;;12.00;1.00;;;;;;5016508;28;20080;-66
2024/03/02 12:29:41;;;;;;;4.05;2.70;;;11.90;1.00;;;;;;5020597;28;20368;-66
2024/03/02 12:32:08;;;;;;;3.72;2.50;;;12.00;1.00;;;;;;5022814;28;20041;-66
2024/03/02 12:34:33;;;;;;;3.17;2.40;;;12.10;1.00;;;;;;5007376;28;20053;-66
2024/03/02 12:36:59;;;;;;;8.85;2.28;;;12.10;1.00;;;;;;5003616;28;20381;-66
2024/03/02 12:39:25;;;;;;;3.85;2.47;;;12.20;1.00;;;;;;5015449;28;20050;-66
2024/03/02 12:41:51;;;;;;;2.67;1.95;;;12.30;1.00;;;;;;4986622;28;20104;-66
2024/03/02 12:44:18;;;;;;;4.22;2.20;;;12.40;1.00;;;;;;5023541;28;20044;-66
2024/03/02 12:46:44;;;;;;;5.38;2.00;;;12.30;1.00;;;;;;5024143;28;20463;-66
2024/03/02 12:49:20;;;;;;;3.35;1.70;;;12.30;1.00;;;;;;4993116;28;20490;-66
2024/03/02 12:51:51;;;;;;;2.17;1.63;;;12.40;1.00;;;;;;5008478;28;20607;-66
2024/03/02 12:54:17;;;;;;;3.55;1.50;;;12.50;1.00;;;;;;4985954;28;20054;-66
2024/03/02 12:56:47;;;;;;;2.05;1.38;;;12.40;1.00;;;;;;5021384;28;20068;-66
2024/03/02 12:59:21;;;;;;;2.67;1.58;;;12.40;1.00;;;;;;5002349;28;20050;-66
2024/03/02 13:01:54;;;;;;;2.13;1.45;;;12.30;1.00;;;;;;5023009;28;20077;-66
2024/03/02 13:04:30;;;;;;;2.20;1.40;;;12.50;1.00;;;;;;5006299;28;20128;-66